UTC Date UTC H:MM UTS Secs Latitude Longitude Ground Speed (km/hr) Course (degrees, True)
13/05/2018 6:29 44 27° 18.40415' S 153° 0.39809' E 1.681616 57.93
13/05/2018 6:29 44.5 27° 18.40392' S 153° 0.39836' E 3.011352 49.22
13/05/2018 6:29 45 27° 18.40372' S 153° 0.39866' E 3.809564 48.48
13/05/2018 6:29 45.5 27° 18.4035' S 153° 0.39903' E 4.635556 49.08
13/05/2018 6:29 46 27° 18.40325' S 153° 0.39948' E 5.511552 51.02
13/05/2018 6:29 46.5 27° 18.40301' S 153° 0.39984' E 5.541184 51.54
13/05/2018 6:29 47 27° 18.40278' S 153° 0.40033' E 6.026408 53.97
13/05/2018 6:29 47.5 27° 18.40252' S 153° 0.40069' E 5.822688 52.23
13/05/2018 6:29 48 27° 18.40217' S 153° 0.40112' E 6.719056 46.89
13/05/2018 6:29 48.5 27° 18.40139' S 153° 0.40178' E 11.59352 38.43
13/05/2018 6:29 49 27° 18.40021' S 153° 0.40279' E 18.2885 36.84
13/05/2018 6:29 49.5 27° 18.39838' S 153° 0.40437' E 28.033724 36.24
13/05/2018 6:29 50 27° 18.39586' S 153° 0.40642' E 38.228984 34.98
13/05/2018 6:29 50.5 27° 18.39266' S 153° 0.40876' E 47.937168 32.34
13/05/2018 6:29 51 27° 18.3888' S 153° 0.41127' E 56.834176 29.33
13/05/2018 6:29 51.5 27° 18.38434' S 153° 0.41408' E 65.388564 28.57
13/05/2018 6:29 52 27° 18.379' S 153° 0.41827' E 79.597108 32.49
13/05/2018 6:29 52.5 27° 18.37341' S 153° 0.42228' E 85.755008 31.83
13/05/2018 6:29 53 27° 18.36734' S 153° 0.42695' E 94.114936 32.96
13/05/2018 6:29 53.5 27° 18.36074' S 153° 0.43164' E 100.8414 31.76
13/05/2018 6:29 54 27° 18.35386' S 153° 0.43684' E 107.440076 32.24
13/05/2018 6:29 54.5 27° 18.34698' S 153° 0.44123' E 106.280724 30.48
13/05/2018 6:29 55 27° 18.34025' S 153° 0.44579' E 105.525108 31.12
13/05/2018 6:29 55.5 27° 18.33419' S 153° 0.45013' E 99.472772 32.58
13/05/2018 6:29 56 27° 18.32872' S 153° 0.45357' E 89.538644 31.35
13/05/2018 6:29 56.5 27° 18.32403' S 153° 0.45579' E 76.05238 28.37
13/05/2018 6:29 57 27° 18.31915' S 153° 0.45652' E 69.324064 17.01
13/05/2018 6:29 57.5 27° 18.3146' S 153° 0.45476' E 61.919768 355.13
13/05/2018 6:29 58 27° 18.31136' S 153° 0.45089' E 58.649136 329.96
13/05/2018 6:29 58.5 27° 18.30898' S 153° 0.44564' E 61.808648 311.32
13/05/2018 6:29 59 27° 18.30632' S 153° 0.44176' E 58.6621 310.05
13/05/2018 6:29 59.5 27° 18.30477' S 153° 0.43606' E 64.279216 298.1
13/05/2018 6:30 0 27° 18.3017' S 153° 0.4312' E 67.81098 301.43
13/05/2018 6:30 0.5 27° 18.30199' S 153° 0.4214' E 83.564092 284.89
13/05/2018 6:30 1 27° 18.30174' S 153° 0.41172' E 94.435332 279.62
13/05/2018 6:30 1.5 27° 18.30044' S 153° 0.40837' E 75.448628 281.49
13/05/2018 6:30 2 27° 18.34956' S 153° 0.41451' E 85.92354 200.49
13/05/2018 6:30 2.5 27° 18.36035' S 153° 0.41255' E 88.74784 202.77
13/05/2018 6:30 3 27° 18.37024' S 153° 0.41128' E 101.191428 197.5
13/05/2018 6:30 3.5 27° 18.37877' S 153° 0.40985' E 101.567384 196.32
13/05/2018 6:30 4 27° 18.38772' S 153° 0.40892' E 98.307864 196.8
13/05/2018 6:30 4.5 27° 18.3954' S 153° 0.40857' E 91.325824 193.31
13/05/2018 6:30 5 27° 18.40276' S 153° 0.40909' E 90.622064 183.33
13/05/2018 6:30 5.5 27° 18.40905' S 153° 0.41214' E 83.878932 167.03
13/05/2018 6:30 6 27° 18.41241' S 153° 0.41693' E 70.638984 147.94
13/05/2018 6:30 6.5 27° 18.41438' S 153° 0.42055' E 54.895132 138.43
13/05/2018 6:30 7 27° 18.41709' S 153° 0.42367' E 51.894892 136.76
13/05/2018 6:30 7.5 27° 18.41611' S 153° 0.42646' E 33.911972 118.44
13/05/2018 6:30 8 27° 18.41294' S 153° 0.42896' E 23.842648 103.89
13/05/2018 6:30 8.5 27° 18.40927' S 153° 0.43119' E 29.211596 43.19
13/05/2018 6:30 9 27° 18.40393' S 153° 0.43348' E 41.29034 26.94
13/05/2018 6:30 9.5 27° 18.39802' S 153° 0.43437' E 50.665164 14.28
13/05/2018 6:30 10 27° 18.39196' S 153° 0.43517' E 58.225028 9.52
13/05/2018 6:30 10.5 27° 18.38541' S 153° 0.43582' E 65.314484 6.49
13/05/2018 6:30 11 27° 18.37837' S 153° 0.43639' E 71.772408 4.97
13/05/2018 6:30 11.5 27° 18.37407' S 153° 0.43696' E 67.91284 5.34
13/05/2018 6:30 12 27° 18.36166' S 153° 0.43759' E 84.541948 4
13/05/2018 6:30 12.5 27° 18.3532' S 153° 0.43831' E 86.140224 5.02
13/05/2018 6:30 13 27° 18.34354' S 153° 0.43872' E 85.501284 7.46
13/05/2018 6:30 13.5 27° 18.33589' S 153° 0.43949' E 82.315844 10.45
13/05/2018 6:30 14 27° 18.33085' S 153° 0.44389' E 64.075496 36.51
13/05/2018 6:30 14.5 27° 18.3271' S 153° 0.44825' E 45.862928 81.51
13/05/2018 6:30 15 27° 18.32669' S 153° 0.45027' E 37.997484 124.29
13/05/2018 6:30 15.5 27° 18.32756' S 153° 0.45077' E 39.062384 159.49
13/05/2018 6:30 16 27° 18.33007' S 153° 0.45006' E 49.020588 183.33
13/05/2018 6:30 16.5 27° 18.33305' S 153° 0.44811' E 61.760496 194.78
13/05/2018 6:30 17 27° 18.33856' S 153° 0.44513' E 71.770556 199.34
13/05/2018 6:30 17.5 27° 18.34464' S 153° 0.44166' E 81.769504 200.8
13/05/2018 6:30 18 27° 18.35128' S 153° 0.43814' E 90.329448 200.65
13/05/2018 6:30 18.5 27° 18.35826' S 153° 0.43478' E 95.837296 200.46
13/05/2018 6:30 19 27° 18.36542' S 153° 0.43122' E 100.07282 201.02
13/05/2018 6:30 19.5 27° 18.37244' S 153° 0.42769' E 102.047052 201.58
13/05/2018 6:30 20 27° 18.3796' S 153° 0.42434' E 103.034168 201.72
13/05/2018 6:30 20.5 27° 18.38677' S 153° 0.42097' E 103.712 201.88
13/05/2018 6:30 21 27° 18.39388' S 153° 0.41752' E 103.8046 202.26
13/05/2018 6:30 21.5 27° 18.40776' S 153° 0.41119' E 102.771184 202.26
13/05/2018 6:30 22 27° 18.40776' S 153° 0.41119' E 102.771184 202.26
13/05/2018 6:30 22.5 27° 18.41433' S 153° 0.40804' E 100.602492 202.23
13/05/2018 6:30 23 27° 18.42096' S 153° 0.40469' E 99.576484 202.83
13/05/2018 6:30 23.5 27° 18.42735' S 153° 0.4013' E 98.07266 203.47
13/05/2018 6:30 24 27° 18.43135' S 153° 0.39768' E 91.268412 206.44
13/05/2018 6:30 24.5 27° 18.43517' S 153° 0.39554' E 84.643808 206.61
13/05/2018 6:30 25 27° 18.43795' S 153° 0.39492' E 75.628272 204.94
13/05/2018 6:30 25.5 27° 18.43912' S 153° 0.39496' E 64.460712 203.9
13/05/2018 6:30 26 27° 18.43599' S 153° 0.39805' E 44.15168 200.43
13/05/2018 6:30 26.5 27° 18.4353' S 153° 0.3973' E 35.221336 205.56
13/05/2018 6:30 27 27° 18.43204' S 153° 0.39764' E 22.32586 209.04
13/05/2018 6:30 27.5 27° 18.42773' S 153° 0.39878' E 10.98236 216.27
13/05/2018 6:30 28 27° 18.42764' S 153° 0.3986' E 9.51002 229.43
13/05/2018 6:30 28.5 27° 18.42677' S 153° 0.39819' E 9.51002 229.43
13/05/2018 6:30 29 27° 18.42642' S 153° 0.39679' E 9.51002 229.43
13/05/2018 6:30 29.5 27° 18.42486' S 153° 0.3947' E 16.3439 262.36
13/05/2018 6:30 30 27° 18.42213' S 153° 0.39311' E 22.014724 286.28
13/05/2018 6:30 30.5 27° 18.42122' S 153° 0.389' E 28.728224 293.54
13/05/2018 6:30 31 27° 18.42416' S 153° 0.38214' E 35.35468 274.31
13/05/2018 6:30 31.5 27° 18.43079' S 153° 0.37444' E 44.638756 246.79
13/05/2018 6:30 32 27° 18.43538' S 153° 0.36991' E 52.987572 231.66
13/05/2018 6:30 32.5 27° 18.43699' S 153° 0.36976' E 49.144672 224.18
13/05/2018 6:30 33 27° 18.43809' S 153° 0.37204' E 42.210784 211.45
13/05/2018 6:30 33.5 27° 18.43921' S 153° 0.3756' E 36.714048 191.92
13/05/2018 6:30 34 27° 18.43839' S 153° 0.38187' E 32.232208 162.83
13/05/2018 6:30 34.5 27° 18.43997' S 153° 0.38497' E 34.03976 153.23
13/05/2018 6:30 35 27° 18.44071' S 153° 0.38781' E 32.513712 145.4
13/05/2018 6:30 35.5 27° 18.44148' S 153° 0.3907' E 31.704388 138.49
13/05/2018 6:30 36 27° 18.44056' S 153° 0.39123' E 22.144364 137.27
13/05/2018 6:30 36.5 27° 18.43799' S 153° 0.38969' E 22.144364 137.27